createdAt,value
2017-12-15T00:00:25.012Z,6.09
2017-12-15T00:01:25.036Z,6.09
2017-12-15T00:03:18.444Z,6.14
2017-12-15T00:04:18.500Z,6.11
2017-12-15T00:06:12.072Z,6.12
2017-12-15T00:07:11.980Z,6.06
2017-12-15T00:09:06.404Z,6.17
2017-12-15T00:10:06.469Z,6.11
2017-12-15T00:12:00.949Z,6.09
2017-12-15T00:13:00.956Z,6.08
2017-12-15T00:14:55.390Z,6.15
2017-12-15T00:15:55.429Z,6.15
2017-12-15T00:17:49.884Z,6.06
2017-12-15T00:18:49.957Z,6.04
2017-12-15T00:20:44.349Z,6.21
2017-12-15T00:21:44.389Z,6.25
2017-12-15T00:23:38.869Z,6.12
2017-12-15T00:24:38.869Z,6.12
2017-12-15T00:26:33.284Z,6.12
2017-12-15T00:27:33.350Z,6.11
2017-12-15T00:29:26.813Z,6.11
2017-12-15T00:30:26.821Z,6.08
2017-12-15T00:32:20.302Z,6.04
2017-12-15T00:33:20.334Z,6.00
2017-12-15T00:35:14.766Z,6.01
2017-12-15T00:36:14.774Z,5.97
2017-12-15T00:38:09.222Z,5.90
2017-12-15T00:39:09.238Z,5.94
2017-12-15T00:41:02.749Z,5.96
2017-12-15T00:42:02.758Z,5.94
2017-12-15T00:43:56.190Z,5.85
2017-12-15T00:44:56.206Z,6.03
2017-12-15T00:46:50.750Z,5.94
2017-12-15T00:47:50.694Z,5.96
2017-12-15T00:49:44.126Z,5.99
2017-12-15T00:50:44.166Z,6.03
2017-12-15T00:52:37.654Z,6.01
2017-12-15T00:53:37.638Z,6.03
2017-12-15T00:55:32.079Z,6.04
2017-12-15T00:56:32.142Z,5.94
2017-12-15T00:58:25.631Z,5.93
2017-12-15T00:59:25.607Z,5.97
2017-12-15T01:01:20.062Z,5.93
2017-12-15T01:02:20.095Z,5.89
2017-12-15T01:04:13.567Z,5.90
2017-12-15T01:05:13.575Z,6.00
2017-12-15T01:07:08.097Z,6.00
2017-12-15T01:08:08.151Z,5.93
2017-12-15T01:10:02.536Z,5.96
2017-12-15T01:11:02.563Z,5.94
2017-12-15T01:12:56.880Z,5.94
2017-12-15T01:13:56.927Z,5.82
2017-12-15T01:15:50.382Z,5.86
2017-12-15T01:16:50.358Z,5.82
2017-12-15T01:18:44.831Z,5.76
2017-12-15T01:19:44.863Z,5.75
2017-12-15T01:21:39.327Z,5.72
2017-12-15T01:22:39.343Z,5.82
2017-12-15T01:24:33.775Z,5.79
2017-12-15T01:25:33.823Z,5.75
2017-12-15T01:27:28.321Z,5.74
2017-12-15T01:28:28.319Z,5.78
2017-12-15T01:30:23.624Z,5.78
2017-12-15T01:31:23.608Z,5.86
2017-12-15T01:33:17.095Z,5.79
2017-12-15T01:34:17.112Z,5.86
2017-12-15T01:36:10.583Z,5.82
2017-12-15T01:37:10.631Z,5.85
2017-12-15T01:39:05.032Z,5.78
2017-12-15T01:40:05.048Z,5.78
2017-12-15T01:41:59.520Z,5.75
2017-12-15T01:42:59.520Z,5.63
2017-12-15T01:44:54.000Z,5.81
2017-12-15T01:45:54.008Z,5.64
2017-12-15T01:47:47.504Z,5.74
2017-12-15T01:48:47.544Z,5.78
2017-12-15T01:50:41.976Z,5.68
2017-12-15T01:51:41.961Z,5.64
2017-12-15T01:53:35.401Z,5.68
2017-12-15T01:54:35.417Z,5.57
2017-12-15T01:56:29.929Z,5.51
2017-12-15T01:57:29.907Z,5.56
2017-12-15T01:59:24.369Z,5.61
2017-12-15T02:00:24.385Z,5.54
2017-12-15T02:02:18.857Z,5.49
2017-12-15T02:03:18.945Z,5.53
2017-12-15T02:05:13.337Z,5.56
2017-12-15T02:06:13.346Z,5.56
2017-12-15T02:08:06.817Z,5.63
2017-12-15T02:09:06.833Z,5.63
2017-12-15T02:11:01.690Z,5.58
2017-12-15T02:12:01.317Z,5.54
2017-12-15T02:13:55.788Z,5.61
2017-12-15T02:14:55.802Z,5.53
2017-12-15T02:16:50.234Z,5.56
2017-12-15T02:17:50.274Z,5.51
2017-12-15T02:19:43.802Z,5.61
2017-12-15T02:20:43.833Z,5.46
2017-12-15T02:22:38.202Z,5.49
2017-12-15T02:23:38.228Z,5.54
2017-12-15T02:25:32.721Z,5.61
2017-12-15T02:26:32.706Z,5.54
2017-12-15T02:28:27.266Z,5.63
2017-12-15T02:29:27.186Z,5.61
2017-12-15T02:31:21.666Z,5.57
2017-12-15T02:32:21.651Z,5.61
2017-12-15T02:34:16.123Z,5.67
2017-12-15T02:35:16.146Z,5.72
2017-12-15T02:37:09.666Z,5.71
2017-12-15T02:38:09.627Z,5.63
2017-12-15T02:40:04.075Z,5.56
2017-12-15T02:41:04.107Z,5.56
2017-12-15T02:42:58.571Z,5.48
2017-12-15T02:43:58.611Z,5.53
2017-12-15T02:45:53.092Z,5.49
2017-12-15T02:46:53.059Z,5.48
2017-12-15T02:48:47.491Z,5.58
2017-12-15T02:49:47.524Z,5.38
2017-12-15T02:51:41.979Z,5.48
2017-12-15T02:52:41.988Z,5.45
2017-12-15T02:54:36.427Z,5.36
2017-12-15T02:55:36.659Z,5.35
2017-12-15T02:57:30.963Z,5.56
2017-12-15T02:58:30.948Z,5.36
2017-12-15T03:00:25.387Z,5.38
2017-12-15T03:01:25.423Z,5.40
2017-12-15T03:03:19.916Z,5.38
2017-12-15T03:04:19.907Z,5.33
2017-12-15T03:06:14.363Z,5.33
2017-12-15T03:07:14.368Z,5.38
2017-12-15T03:09:09.003Z,5.22
2017-12-15T03:10:08.836Z,5.25
2017-12-15T03:12:03.340Z,5.24
2017-12-15T03:13:03.332Z,5.22
2017-12-15T03:14:56.796Z,5.13
2017-12-15T03:15:56.812Z,5.15
2017-12-15T03:17:51.325Z,5.20
2017-12-15T03:18:51.324Z,5.15
2017-12-15T03:20:45.740Z,5.10
2017-12-15T03:21:45.764Z,5.25
2017-12-15T03:23:40.220Z,5.25
2017-12-15T03:24:40.236Z,5.25
2017-12-15T03:26:34.677Z,5.12
2017-12-15T03:27:34.708Z,5.04
2017-12-15T03:29:29.181Z,5.13
2017-12-15T03:30:29.237Z,5.18
2017-12-15T03:32:23.638Z,5.04
2017-12-15T03:33:23.669Z,5.02
2017-12-15T03:35:18.133Z,5.06
2017-12-15T03:36:18.141Z,4.99
2017-12-15T03:38:12.660Z,5.04
2017-12-15T03:39:12.627Z,5.09
2017-12-15T03:41:07.092Z,5.12
2017-12-15T03:42:07.108Z,5.09
2017-12-15T03:44:01.574Z,5.10
2017-12-15T03:45:01.589Z,5.04
2017-12-15T03:46:55.093Z,5.09
2017-12-15T03:47:55.086Z,5.03
2017-12-15T03:49:48.533Z,5.18
2017-12-15T03:50:48.542Z,5.12
2017-12-15T03:52:42.957Z,5.18
2017-12-15T03:53:43.045Z,5.10
2017-12-15T03:55:36.469Z,5.12
2017-12-15T03:56:36.462Z,5.15
2017-12-15T03:58:30.964Z,5.20
2017-12-15T03:59:30.950Z,5.15
2017-12-15T04:01:24.430Z,5.12
2017-12-15T04:02:24.438Z,5.09
2017-12-15T04:04:18.894Z,5.10
2017-12-15T04:05:18.910Z,5.17
2017-12-15T04:07:13.358Z,5.03
2017-12-15T04:08:13.430Z,5.15
2017-12-15T04:10:07.865Z,5.10
2017-12-15T04:11:07.902Z,4.97
2017-12-15T04:13:02.326Z,4.96
2017-12-15T04:14:02.343Z,4.91
2017-12-15T04:15:56.825Z,4.82
2017-12-15T04:16:56.871Z,4.89
2017-12-15T04:18:50.287Z,4.94
2017-12-15T04:19:50.319Z,4.91
2017-12-15T04:21:43.750Z,4.99
2017-12-15T04:22:43.759Z,4.94
2017-12-15T04:24:38.271Z,5.02
2017-12-15T04:25:38.318Z,4.94
2017-12-15T04:27:32.694Z,4.99
2017-12-15T04:28:32.719Z,5.04
2017-12-15T04:30:27.215Z,5.17
2017-12-15T04:31:27.271Z,5.10
2017-12-15T04:33:23.143Z,5.15
2017-12-15T04:34:23.167Z,5.04
2017-12-15T04:36:16.159Z,5.18
2017-12-15T04:37:16.191Z,5.04
2017-12-15T04:39:09.623Z,5.13
2017-12-15T04:40:09.656Z,5.21
2017-12-15T04:42:04.096Z,5.21
2017-12-15T04:43:04.144Z,5.12
2017-12-15T04:44:58.600Z,5.06
2017-12-15T04:45:58.599Z,5.02
2017-12-15T04:47:52.080Z,5.03
2017-12-15T04:48:52.080Z,5.04
2017-12-15T04:50:46.560Z,5.06
2017-12-15T04:51:46.560Z,5.06
2017-12-15T04:53:41.024Z,5.09
2017-12-15T04:54:41.040Z,5.12
2017-12-15T04:56:35.464Z,5.10
2017-12-15T04:57:35.504Z,5.17
2017-12-15T04:59:29.028Z,5.21
2017-12-15T05:00:29.012Z,5.09
2017-12-15T05:02:23.448Z,5.03
2017-12-15T05:03:23.504Z,5.09
2017-12-15T05:05:17.977Z,5.07
2017-12-15T05:06:17.969Z,5.13
2017-12-15T05:08:12.427Z,4.97
2017-12-15T05:09:12.473Z,5.02
2017-12-15T05:11:06.960Z,5.02
2017-12-15T05:12:06.944Z,4.99
2017-12-15T05:14:00.425Z,5.04
2017-12-15T05:15:00.401Z,5.10
2017-12-15T05:16:54.897Z,5.12
2017-12-15T05:17:54.889Z,5.06
2017-12-15T05:19:49.355Z,5.10
2017-12-15T05:20:49.379Z,5.09
2017-12-15T05:22:42.799Z,5.03
2017-12-15T05:23:42.848Z,4.96
2017-12-15T05:25:36.296Z,4.94
2017-12-15T05:26:36.304Z,4.86
2017-12-15T05:28:30.760Z,4.88
2017-12-15T05:29:30.784Z,4.89
2017-12-15T05:31:25.272Z,4.88
2017-12-15T05:32:25.267Z,4.86
2017-12-15T05:34:18.735Z,4.88
2017-12-15T05:35:18.767Z,4.91
2017-12-15T05:37:13.209Z,4.85
2017-12-15T05:38:14.216Z,4.94
2017-12-15T05:40:06.736Z,4.99
2017-12-15T05:41:07.600Z,5.09
2017-12-15T05:43:01.200Z,5.13
2017-12-15T05:44:01.224Z,5.09
2017-12-15T05:45:54.696Z,5.18
2017-12-15T05:46:54.704Z,5.18
2017-12-15T05:48:49.224Z,5.10
2017-12-15T05:49:50.066Z,5.13
2017-12-15T05:51:42.184Z,5.31
2017-12-15T05:52:42.152Z,5.20
2017-12-15T05:54:35.600Z,5.15
2017-12-15T05:55:35.632Z,5.18
2017-12-15T05:57:30.109Z,5.24
2017-12-15T05:58:30.134Z,5.22
2017-12-15T06:00:24.574Z,5.13
2017-12-15T06:01:24.630Z,5.20
2017-12-15T06:03:18.062Z,5.28
2017-12-15T06:04:18.094Z,5.30
2017-12-15T06:06:11.534Z,5.31
2017-12-15T06:07:11.534Z,5.39
2017-12-15T06:09:05.997Z,5.24
2017-12-15T06:10:06.028Z,5.33
2017-12-15T06:12:00.514Z,5.30
2017-12-15T06:13:00.513Z,5.28
2017-12-15T06:14:54.995Z,5.31
2017-12-15T06:15:55.020Z,5.22
2017-12-15T06:17:49.516Z,5.27
2017-12-15T06:18:49.516Z,5.38
2017-12-15T06:20:43.077Z,5.39
2017-12-15T06:21:43.111Z,5.36
2017-12-15T06:23:37.584Z,5.27
2017-12-15T06:24:37.584Z,5.27
2017-12-15T06:26:31.014Z,5.38
2017-12-15T06:27:31.102Z,5.40
2017-12-15T06:29:25.619Z,5.24
2017-12-15T06:30:25.624Z,5.28
2017-12-15T06:32:18.540Z,5.38
2017-12-15T06:33:18.577Z,5.39
2017-12-15T06:35:13.632Z,5.53
2017-12-15T06:36:13.640Z,5.53
2017-12-15T06:38:08.099Z,5.53
2017-12-15T06:39:08.133Z,5.51
2017-12-15T06:41:02.623Z,5.53
2017-12-15T06:42:02.664Z,5.54
2017-12-15T06:43:56.132Z,5.57
2017-12-15T06:44:56.114Z,5.63
2017-12-15T06:46:49.541Z,5.53
2017-12-15T06:47:49.584Z,5.43
2017-12-15T06:49:43.161Z,5.42
2017-12-15T06:50:43.132Z,5.40
2017-12-15T06:52:37.580Z,5.36
2017-12-15T06:53:37.649Z,5.38
2017-12-15T06:55:32.120Z,5.40
2017-12-15T06:56:32.096Z,5.38
2017-12-15T06:58:26.524Z,5.39
2017-12-15T06:59:26.552Z,5.35
2017-12-15T07:01:21.016Z,5.40
2017-12-15T07:02:21.020Z,5.31
2017-12-15T07:04:15.464Z,5.42
2017-12-15T07:05:15.496Z,5.45
2017-12-15T07:07:09.990Z,5.40
2017-12-15T07:08:09.973Z,5.39
2017-12-15T07:10:02.942Z,5.31
2017-12-15T07:11:02.958Z,5.30
2017-12-15T07:12:57.435Z,5.35
2017-12-15T07:13:57.440Z,5.31
2017-12-15T07:15:51.948Z,5.25
2017-12-15T07:16:51.932Z,5.21
2017-12-15T07:18:45.494Z,5.25
2017-12-15T07:19:45.419Z,5.21
2017-12-15T07:21:39.923Z,5.22
2017-12-15T07:22:39.890Z,5.31
2017-12-15T07:24:34.348Z,5.24
2017-12-15T07:25:34.392Z,5.36
2017-12-15T07:27:28.882Z,5.35
2017-12-15T07:28:28.875Z,5.30
2017-12-15T07:30:22.299Z,5.38
2017-12-15T07:31:22.340Z,5.39
2017-12-15T07:33:15.812Z,5.40
2017-12-15T07:34:15.819Z,5.36
2017-12-15T07:36:10.252Z,5.33
2017-12-15T07:37:10.284Z,5.30
2017-12-15T07:39:04.758Z,5.35
2017-12-15T07:40:04.765Z,5.31
2017-12-15T07:41:58.212Z,5.33
2017-12-15T07:42:58.236Z,5.38
2017-12-15T07:44:51.212Z,5.36
2017-12-15T07:45:51.252Z,5.38
2017-12-15T07:47:45.740Z,5.40
2017-12-15T07:48:45.700Z,5.36
2017-12-15T07:50:39.205Z,5.48
2017-12-15T07:51:39.188Z,5.51
2017-12-15T07:53:32.700Z,5.49
2017-12-15T07:54:32.676Z,5.45
2017-12-15T07:56:27.120Z,5.60
2017-12-15T07:57:27.213Z,5.46
2017-12-15T07:59:21.621Z,5.57
2017-12-15T08:00:21.637Z,5.58
2017-12-15T08:02:15.069Z,5.58
2017-12-15T08:03:15.109Z,5.49
2017-12-15T08:05:08.597Z,5.36
2017-12-15T08:06:08.593Z,5.42
2017-12-15T08:08:03.077Z,5.39
2017-12-15T08:09:03.061Z,5.42
2017-12-15T08:10:56.037Z,5.36
2017-12-15T08:11:56.053Z,5.43
2017-12-15T08:13:49.045Z,5.51
2017-12-15T08:14:49.045Z,5.53
2017-12-15T08:16:43.477Z,5.54
2017-12-15T08:17:43.518Z,5.53
2017-12-15T08:19:37.998Z,5.51
2017-12-15T08:20:37.990Z,5.38
2017-12-15T08:22:32.461Z,5.45
2017-12-15T08:23:32.493Z,5.51
2017-12-15T08:25:26.981Z,5.48
2017-12-15T08:26:27.035Z,5.53
2017-12-15T08:28:21.422Z,5.49
2017-12-15T08:29:21.446Z,5.39
2017-12-15T08:31:14.448Z,5.53
2017-12-15T08:32:14.438Z,5.51
2017-12-15T08:34:08.870Z,5.54
2017-12-15T08:35:08.927Z,5.49
2017-12-15T08:37:03.374Z,5.49
2017-12-15T08:38:03.374Z,5.45
2017-12-15T08:39:57.863Z,5.61
2017-12-15T08:40:57.847Z,5.63
2017-12-15T08:42:52.407Z,5.54
2017-12-15T08:43:52.319Z,5.46
2017-12-15T08:45:46.758Z,5.49
2017-12-15T08:46:46.799Z,5.57
2017-12-15T08:48:40.255Z,5.61
2017-12-15T08:49:40.271Z,5.57
2017-12-15T08:51:33.751Z,5.65
2017-12-15T08:52:33.783Z,5.57
2017-12-15T08:54:28.223Z,5.56
2017-12-15T08:55:28.223Z,5.51
2017-12-15T08:57:22.719Z,5.61
2017-12-15T08:58:22.719Z,5.63
2017-12-15T09:00:16.152Z,5.58
2017-12-15T09:01:16.192Z,5.64
2017-12-15T09:03:10.671Z,5.67
2017-12-15T09:04:10.663Z,5.67
2017-12-15T09:06:05.144Z,5.76
2017-12-15T09:07:05.152Z,5.65
2017-12-15T09:08:59.632Z,5.64
2017-12-15T09:09:59.623Z,5.68
2017-12-15T09:11:54.104Z,5.63
2017-12-15T09:12:54.136Z,5.63
2017-12-15T09:14:47.080Z,5.57
2017-12-15T09:17:01.552Z,5.67
2017-12-15T09:18:01.560Z,5.72
2017-12-15T09:19:56.024Z,5.74
2017-12-15T09:20:56.056Z,5.83
2017-12-15T09:22:50.541Z,5.83
2017-12-15T09:23:50.544Z,5.82
2017-12-15T09:25:44.985Z,5.83
2017-12-15T09:26:45.009Z,5.94
2017-12-15T09:28:39.496Z,5.94
2017-12-15T09:29:39.492Z,5.94
2017-12-15T09:31:32.961Z,5.99
2017-12-15T09:32:32.993Z,5.97
2017-12-15T09:34:26.465Z,6.08
2017-12-15T09:35:26.465Z,6.06
2017-12-15T09:37:20.011Z,6.00
2017-12-15T09:38:20.009Z,5.97
2017-12-15T09:40:13.009Z,6.04
2017-12-15T09:41:12.993Z,6.04
2017-12-15T09:43:05.947Z,6.03
2017-12-15T09:44:06.970Z,6.08
2017-12-15T09:45:59.458Z,6.11
2017-12-15T09:46:59.450Z,6.15
2017-12-15T09:48:53.986Z,6.25
2017-12-15T09:49:54.002Z,6.27
2017-12-15T09:51:48.441Z,6.04
2017-12-15T09:52:48.458Z,6.09
2017-12-15T09:54:42.930Z,6.25
2017-12-15T09:55:42.946Z,6.31
2017-12-15T09:57:36.378Z,6.15
2017-12-15T09:58:36.427Z,6.28
2017-12-15T10:00:29.906Z,6.28
2017-12-15T10:01:29.906Z,6.25
2017-12-15T10:03:24.426Z,6.21
2017-12-15T10:04:24.387Z,6.18
2017-12-15T10:06:18.850Z,6.22
2017-12-15T10:07:18.875Z,6.27
2017-12-15T10:09:12.356Z,6.25
2017-12-15T10:10:12.354Z,6.30
2017-12-15T10:12:06.803Z,6.46
2017-12-15T10:13:06.859Z,6.40
2017-12-15T10:15:01.308Z,6.48
2017-12-15T10:16:01.300Z,6.40
2017-12-15T10:17:55.755Z,6.28
2017-12-15T10:18:55.805Z,6.22
2017-12-15T10:20:49.295Z,6.27
2017-12-15T10:21:49.291Z,6.31
2017-12-15T10:23:43.747Z,6.22
2017-12-15T10:24:43.787Z,6.21
2017-12-15T10:26:38.251Z,6.33
2017-12-15T10:27:38.276Z,6.31
2017-12-15T10:29:32.685Z,6.38
2017-12-15T10:30:32.726Z,6.40
2017-12-15T10:32:27.204Z,6.31
2017-12-15T10:33:27.212Z,6.37
2017-12-15T10:35:21.700Z,6.38
2017-12-15T10:36:21.708Z,6.44
2017-12-15T10:38:16.678Z,6.37
2017-12-15T10:39:16.177Z,6.33
2017-12-15T10:41:09.651Z,6.49
2017-12-15T10:42:09.668Z,6.55
2017-12-15T10:44:03.151Z,6.66
2017-12-15T10:45:03.132Z,6.64
2017-12-15T10:46:56.604Z,6.64
2017-12-15T10:47:56.620Z,6.59
2017-12-15T10:49:51.109Z,6.48
2017-12-15T10:50:51.116Z,6.58
2017-12-15T10:52:44.077Z,6.49
2017-12-15T10:53:44.109Z,6.54
2017-12-15T10:55:38.629Z,6.46
2017-12-15T10:56:38.596Z,6.61
2017-12-15T10:58:32.041Z,6.85
2017-12-15T10:59:32.069Z,6.84
2017-12-15T11:01:26.557Z,6.98
2017-12-15T11:02:26.541Z,7.02
2017-12-15T11:04:19.997Z,7.20
2017-12-15T11:05:20.029Z,7.13
2017-12-15T11:07:13.501Z,7.12
2017-12-15T11:08:13.509Z,7.09
2017-12-15T11:10:07.949Z,7.06
2017-12-15T11:11:07.998Z,6.98
2017-12-15T11:13:01.498Z,6.97
2017-12-15T11:14:01.475Z,6.94
2017-12-15T11:15:55.926Z,6.92
2017-12-15T11:16:55.934Z,6.97
2017-12-15T11:18:49.446Z,6.99
2017-12-15T11:19:49.438Z,6.89
2017-12-15T11:21:43.012Z,6.95
2017-12-15T11:22:43.006Z,6.97
2017-12-15T11:24:37.494Z,7.17
2017-12-15T11:25:37.486Z,7.21
2017-12-15T11:27:30.974Z,7.25
2017-12-15T11:28:31.022Z,7.09
2017-12-15T11:30:24.486Z,7.21
2017-12-15T11:31:24.507Z,7.07
2017-12-15T11:33:17.974Z,6.99
2017-12-15T11:34:17.951Z,7.02
2017-12-15T11:36:11.391Z,6.95
2017-12-15T11:37:11.433Z,7.10
2017-12-15T11:39:05.415Z,7.07
2017-12-15T11:40:05.031Z,6.88
2017-12-15T11:41:58.502Z,6.84
2017-12-15T11:42:58.486Z,6.92
2017-12-15T11:44:52.991Z,7.02
2017-12-15T11:45:52.967Z,6.88
2017-12-15T11:47:47.527Z,6.80
2017-12-15T11:48:47.472Z,6.88
2017-12-15T11:50:42.055Z,6.99
2017-12-15T11:51:42.016Z,6.95
2017-12-15T11:53:35.504Z,7.09
2017-12-15T11:54:35.535Z,6.98
2017-12-15T11:56:28.515Z,6.97
2017-12-15T11:57:28.544Z,7.06
2017-12-15T11:59:22.959Z,6.81
2017-12-15T12:00:22.983Z,6.89
2017-12-15T12:02:17.471Z,6.92
2017-12-15T12:03:18.120Z,6.97
2017-12-15T12:05:11.264Z,6.98
2017-12-15T12:06:11.282Z,6.94
2017-12-15T12:08:05.720Z,6.92
2017-12-15T12:09:05.752Z,6.91
2017-12-15T12:11:00.264Z,6.89
2017-12-15T12:12:00.248Z,6.92
2017-12-15T12:13:54.680Z,6.94
2017-12-15T12:14:54.720Z,6.87
2017-12-15T12:16:48.944Z,6.99
2017-12-15T12:17:48.232Z,6.97
2017-12-15T12:19:42.808Z,7.10
2017-12-15T12:20:42.984Z,6.99
2017-12-15T12:22:36.273Z,7.09
2017-12-15T12:23:36.280Z,6.94
2017-12-15T12:25:29.808Z,6.92
2017-12-15T12:26:29.881Z,7.05
2017-12-15T12:28:23.336Z,7.02
2017-12-15T12:29:23.345Z,7.10
2017-12-15T12:31:16.777Z,7.17
2017-12-15T12:32:16.809Z,7.23
2017-12-15T12:34:11.304Z,7.23
2017-12-15T12:35:11.289Z,7.25
2017-12-15T12:37:04.745Z,7.24
2017-12-15T12:38:04.825Z,7.09
2017-12-15T12:39:58.616Z,7.23
2017-12-15T12:40:58.536Z,7.20
2017-12-15T12:42:51.968Z,7.32
2017-12-15T12:43:52.000Z,7.35
2017-12-15T12:45:45.493Z,7.34
2017-12-15T12:46:45.468Z,7.30
2017-12-15T12:48:38.957Z,7.27
2017-12-15T12:49:38.995Z,7.30
2017-12-15T12:51:33.453Z,7.21
2017-12-15T12:52:33.535Z,7.15
2017-12-15T12:54:29.111Z,7.21
2017-12-15T12:55:31.169Z,7.16
2017-12-15T12:57:22.664Z,7.28
2017-12-15T13:00:20.856Z,7.31
2017-12-15T13:01:17.472Z,7.46
2017-12-15T13:03:11.977Z,7.42
2017-12-15T13:04:12.000Z,7.45
2017-12-15T13:08:21.248Z,7.52
2017-12-15T13:09:21.849Z,7.43
2017-12-15T13:11:27.840Z,7.57
2017-12-15T13:13:32.000Z,7.48
2017-12-15T13:14:32.113Z,7.52
2017-12-15T13:16:25.529Z,7.48
2017-12-15T13:17:25.537Z,7.49
2017-12-15T13:19:20.121Z,7.49
2017-12-15T13:20:20.115Z,7.35
2017-12-15T13:22:14.181Z,7.40
2017-12-15T13:23:13.605Z,7.48
2017-12-15T13:25:07.126Z,7.37
2017-12-15T13:26:07.173Z,7.35
2017-12-15T13:28:01.629Z,7.43
2017-12-15T13:29:01.838Z,7.35
2017-12-15T13:30:59.150Z,7.28
2017-12-15T13:31:56.117Z,7.20
2017-12-15T13:33:49.225Z,7.27
2017-12-15T13:34:49.253Z,7.31
2017-12-15T13:36:42.705Z,7.37
2017-12-15T13:37:42.722Z,7.43
2017-12-15T13:39:36.258Z,7.49
2017-12-15T13:40:36.226Z,7.53
2017-12-15T13:42:30.674Z,7.67
2017-12-15T13:43:30.754Z,7.75
2017-12-15T13:45:24.226Z,7.83
2017-12-15T13:46:24.194Z,7.82
2017-12-15T13:48:17.634Z,7.77
2017-12-15T13:49:17.722Z,7.72
2017-12-15T13:51:12.155Z,7.80
2017-12-15T13:52:12.179Z,7.72
2017-12-15T13:54:08.292Z,7.67
2017-12-15T13:55:06.212Z,7.68
2017-12-15T13:56:59.562Z,7.64
2017-12-15T13:57:59.571Z,7.53
2017-12-15T13:59:54.370Z,7.61
2017-12-15T14:00:54.273Z,7.58
2017-12-15T14:02:48.632Z,7.55
2017-12-15T14:03:48.632Z,7.60
2017-12-15T14:05:42.106Z,7.63
2017-12-15T14:06:42.130Z,7.74
2017-12-15T14:08:36.602Z,7.72
2017-12-15T14:09:36.594Z,7.68
2017-12-15T14:11:30.050Z,7.74
2017-12-15T14:12:30.090Z,7.77
2017-12-15T14:14:23.578Z,7.72
2017-12-15T14:15:23.578Z,7.71
2017-12-15T14:17:18.082Z,7.63
2017-12-15T14:18:18.058Z,7.64
2017-12-15T14:20:12.570Z,7.60
2017-12-15T14:21:12.548Z,7.68
2017-12-15T14:23:07.003Z,7.60
2017-12-15T14:24:07.043Z,7.61
2017-12-15T14:26:01.523Z,7.63
2017-12-15T14:27:01.515Z,7.61
2017-12-15T14:28:54.987Z,7.75
2017-12-15T14:29:55.043Z,7.68
2017-12-15T14:31:49.507Z,7.61
2017-12-15T14:32:49.523Z,7.64
2017-12-15T14:34:43.003Z,7.67
2017-12-15T14:35:43.003Z,7.67
2017-12-15T14:37:36.555Z,7.50
2017-12-15T14:38:36.500Z,7.46
2017-12-15T14:40:29.954Z,7.42
2017-12-15T14:41:29.969Z,7.43
2017-12-15T14:43:23.440Z,7.40
2017-12-15T14:44:23.448Z,7.39
2017-12-15T14:46:16.905Z,7.32
2017-12-15T14:47:17.041Z,7.27
2017-12-15T14:49:11.873Z,7.31
2017-12-15T14:50:11.913Z,7.31
2017-12-15T14:52:48.257Z,7.25
2017-12-15T14:55:00.571Z,7.30
2017-12-15T14:56:00.577Z,7.25
2017-12-15T14:57:55.305Z,7.34
2017-12-15T14:58:55.137Z,7.16
2017-12-15T15:00:48.706Z,7.25
2017-12-15T15:01:48.497Z,7.20
2017-12-15T15:03:45.010Z,7.21
2017-12-15T15:04:45.362Z,7.27
2017-12-15T15:06:37.889Z,7.28
2017-12-15T15:07:37.953Z,7.27
2017-12-15T15:09:31.401Z,7.25
2017-12-15T15:10:31.346Z,7.27
2017-12-15T15:12:25.810Z,7.16
2017-12-15T15:13:25.890Z,7.17
2017-12-15T15:15:20.330Z,7.17
2017-12-15T15:16:20.378Z,7.16
2017-12-15T15:18:14.762Z,7.15
2017-12-15T15:19:14.834Z,7.15
2017-12-15T15:21:09.315Z,7.21
2017-12-15T15:22:09.307Z,7.16
2017-12-15T15:24:02.738Z,7.13
2017-12-15T15:25:02.794Z,7.17
2017-12-15T15:26:56.275Z,7.21
2017-12-15T15:27:56.275Z,7.17
2017-12-15T15:29:49.730Z,7.15
2017-12-15T15:30:49.754Z,7.28
2017-12-15T15:32:42.995Z,7.13
2017-12-15T15:33:43.283Z,7.17
2017-12-15T15:35:36.474Z,7.27
2017-12-15T15:36:36.387Z,7.21
2017-12-15T15:38:29.371Z,7.27
2017-12-15T15:39:29.355Z,7.21
2017-12-15T15:41:23.811Z,7.28
2017-12-15T15:42:23.843Z,7.17
2017-12-15T15:44:18.316Z,7.16
2017-12-15T15:45:18.349Z,7.28
2017-12-15T15:47:11.819Z,7.24
2017-12-15T15:48:11.819Z,7.09
2017-12-15T15:50:06.268Z,7.16
2017-12-15T15:51:06.308Z,7.15
2017-12-15T15:53:00.772Z,6.99
2017-12-15T15:54:00.780Z,7.06
2017-12-15T15:55:55.300Z,6.79
2017-12-15T15:56:55.259Z,6.88
2017-12-15T15:58:49.725Z,6.64
2017-12-15T15:59:49.772Z,6.66
2017-12-15T16:01:43.238Z,6.62
2017-12-15T16:02:43.229Z,6.51
2017-12-15T16:04:36.719Z,6.48
2017-12-15T16:05:36.717Z,6.41
2017-12-15T16:07:30.165Z,6.37
2017-12-15T16:08:30.197Z,6.51
2017-12-15T16:10:23.723Z,6.36
2017-12-15T16:11:23.677Z,6.30
2017-12-15T16:13:18.166Z,6.31
2017-12-15T16:14:18.186Z,6.30
2017-12-15T16:16:11.670Z,6.22
2017-12-15T16:17:11.654Z,6.19
2017-12-15T16:19:05.142Z,6.11
2017-12-15T16:20:05.150Z,6.12
2017-12-15T16:21:59.598Z,6.04
2017-12-15T16:22:59.646Z,6.03
2017-12-15T16:24:53.110Z,5.91
2017-12-15T16:25:53.126Z,5.93
2017-12-15T16:27:46.550Z,5.93
2017-12-15T16:28:46.575Z,5.86
2017-12-15T16:30:40.070Z,5.91
2017-12-15T16:31:40.070Z,5.83
2017-12-15T16:33:33.575Z,5.97
2017-12-15T16:34:33.558Z,5.97
2017-12-15T16:36:27.999Z,6.08
2017-12-15T16:37:28.046Z,6.06
2017-12-15T16:39:22.519Z,6.12
2017-12-15T16:40:22.511Z,6.14
2017-12-15T16:42:16.033Z,6.21
2017-12-15T16:43:15.983Z,6.27
2017-12-15T16:45:10.463Z,6.22
2017-12-15T16:46:10.475Z,6.21
2017-12-15T16:48:03.423Z,6.21
2017-12-15T16:49:03.456Z,6.27
2017-12-15T16:50:56.983Z,6.22
2017-12-15T16:51:57.007Z,6.30
2017-12-15T16:53:51.487Z,6.31
2017-12-15T16:54:51.511Z,6.25
2017-12-15T16:56:45.208Z,6.22
2017-12-15T16:57:45.064Z,6.33
2017-12-15T16:59:39.545Z,6.37
2017-12-15T17:00:39.583Z,6.38
2017-12-15T17:02:33.151Z,6.36
2017-12-15T17:03:33.106Z,6.30
2017-12-15T17:05:26.555Z,6.37
2017-12-15T17:06:26.571Z,6.31
2017-12-15T17:08:21.139Z,6.37
2017-12-15T17:09:21.123Z,6.34
2017-12-15T17:11:15.430Z,6.33
2017-12-15T17:12:15.421Z,6.38
2017-12-15T17:14:09.963Z,6.38
2017-12-15T17:15:10.058Z,6.44
2017-12-15T17:17:04.570Z,6.31
2017-12-15T17:18:04.480Z,6.34
2017-12-15T17:19:57.941Z,6.36
2017-12-15T17:20:58.003Z,6.38
2017-12-15T17:22:51.467Z,6.37
2017-12-15T17:23:51.019Z,6.37
2017-12-15T17:25:44.499Z,6.37
2017-12-15T17:26:44.547Z,6.43
2017-12-15T17:28:39.227Z,6.37
2017-12-15T17:29:39.331Z,6.43
2017-12-15T17:31:33.861Z,6.40
2017-12-15T17:32:33.836Z,6.51
2017-12-15T17:34:28.331Z,6.44
2017-12-15T17:35:28.380Z,6.43
2017-12-15T17:37:22.799Z,6.40
2017-12-15T17:38:22.972Z,6.43
2017-12-15T17:40:16.539Z,6.41
2017-12-15T17:41:16.315Z,6.46
2017-12-15T17:43:09.564Z,6.34
2017-12-15T17:44:09.660Z,6.31
2017-12-15T17:46:03.217Z,6.34
2017-12-15T17:47:03.220Z,6.38
2017-12-15T17:48:56.743Z,6.38
2017-12-15T17:49:56.822Z,6.31
2017-12-15T17:51:50.247Z,6.40
2017-12-15T17:52:50.310Z,6.31
2017-12-15T17:54:43.847Z,6.44
2017-12-15T17:55:43.783Z,6.49
2017-12-15T17:57:37.223Z,6.54
2017-12-15T17:58:37.266Z,6.52
2017-12-15T18:00:31.742Z,6.46
2017-12-15T18:01:31.759Z,6.54
2017-12-15T18:03:26.231Z,6.64
2017-12-15T18:04:26.231Z,6.61
2017-12-15T18:06:20.711Z,6.66
2017-12-15T18:07:20.719Z,6.70
2017-12-15T18:09:14.184Z,6.66
2017-12-15T18:10:14.215Z,6.67
2017-12-15T18:12:07.193Z,6.73
2017-12-15T18:13:07.207Z,6.73
2017-12-15T18:15:01.727Z,6.71
2017-12-15T18:16:01.739Z,6.71
2017-12-15T18:17:57.184Z,6.76
2017-12-15T18:18:57.232Z,6.73
2017-12-15T18:20:50.720Z,6.73
2017-12-15T18:21:50.753Z,6.69
2017-12-15T18:23:45.232Z,6.67
2017-12-15T18:24:45.248Z,6.71
2017-12-15T18:26:39.695Z,6.74
2017-12-15T18:27:39.779Z,6.76
2017-12-15T18:29:34.200Z,6.74
2017-12-15T18:30:34.232Z,6.84
2017-12-15T18:32:27.736Z,6.81
2017-12-15T18:33:27.721Z,6.80
2017-12-15T18:35:21.192Z,6.81
2017-12-15T18:36:21.255Z,6.80
2017-12-15T18:38:15.672Z,6.85
2017-12-15T18:39:15.697Z,6.87
2017-12-15T18:41:10.200Z,6.85
2017-12-15T18:42:10.233Z,6.67
2017-12-15T18:44:04.809Z,6.80
2017-12-15T18:45:04.681Z,6.85
2017-12-15T18:46:59.249Z,6.84
2017-12-15T18:47:59.237Z,6.74
2017-12-15T18:49:53.656Z,6.71
2017-12-15T18:50:53.930Z,6.66
2017-12-15T18:52:49.009Z,6.80
2017-12-15T18:53:48.314Z,6.74
2017-12-15T18:55:43.937Z,6.81
2017-12-15T18:56:43.010Z,6.84
2017-12-15T18:58:37.425Z,6.80
2017-12-15T18:59:35.738Z,6.85
2017-12-15T19:01:28.658Z,6.84
2017-12-15T19:02:28.754Z,6.79
2017-12-15T19:04:22.202Z,6.85
2017-12-15T19:05:22.209Z,6.81
2017-12-15T19:07:16.043Z,6.79
2017-12-15T19:08:16.250Z,6.87
2017-12-15T19:10:10.771Z,6.81
2017-12-15T19:11:10.890Z,6.91
2017-12-15T19:13:05.083Z,6.89
2017-12-15T19:14:05.107Z,6.81
2017-12-15T19:15:59.498Z,6.84
2017-12-15T19:16:59.530Z,6.85
2017-12-15T19:18:53.986Z,6.74
2017-12-15T19:19:54.018Z,6.74
2017-12-15T19:21:50.058Z,6.81
2017-12-15T19:22:50.163Z,6.81
2017-12-15T19:24:44.506Z,6.84